• Join FlightAware (Why Join?)
  • Login
  • US Flag 
01:56PM EDT


 

Airport Tracker/Info


-or-


 

Live Flight TrackerFlight Track Log ✈ SWA3321 ✈ 10-Apr-2013 ✈ KSMF - KSNA

Flight Track Log - Related Links

Times and Time Zones

All times are in EDT time to prevent confusion due to time zone crossing. See the SWA3321 flight status page for this flight to view local times or setup timezone preferences in your user account.

Time Position Orientation Groundspeed Altitude Reporting Facility
EDT Latitude Longitude Course Direction KTS MPH feet Rate Location/Type
04:55PM 38.7500 -121.5667 38° Northeast 209 241 2,700  Level Northern Cal TRACON
04:56PM 38.7000 -121.5167 142° Southeast 242 278 5,300 2,520 Climbing Northern Cal TRACON
04:58PM 38.6303 -121.3986 127° Southeast 296 341 9,300 2,760 Climbing Oakland Center
04:59PM 38.5786 -121.3039 125° Southeast 317 365 12,600 3,480 Climbing Oakland Center
05:00PM 38.5072 -121.1772 126° Southeast 359 413 16,500 3,060 Climbing Oakland Center
05:01PM 38.4536 -121.0797 125° Southeast 387 445 18,900 2,400 Climbing Oakland Center
05:02PM 38.3881 -120.9606 125° Southeast 408 470 21,500 2,940 Climbing Oakland Center
05:03PM 38.3031 -120.8083 125° Southeast 436 502 24,900 2,700 Climbing Oakland Center
05:04PM 38.2286 -120.6811 127° Southeast 446 513 27,100 2,040 Climbing Oakland Center
05:05PM 38.1289 -120.5786 141° Southeast 458 527 29,200 1,860 Climbing Oakland Center
05:06PM 38.0242 -120.4772 143° Southeast 470 541 30,900 1,860 Climbing Oakland Center
05:07PM 37.9047 -120.4033 154° Southeast 481 554 33,100 2,160 Climbing Oakland Center
05:08PM 37.7828 -120.3528 162° South 463 533 35,300 1,740 Climbing Oakland Center
05:09PM 37.6608 -120.3003 161° South 461 531 36,700 1,140 Climbing Oakland Center
05:10PM 37.5375 -120.2481 161° South 466 536 37,700 1,080 Climbing Oakland Center
05:11PM 37.4128 -120.1961 162° South 469 540 39,000 600 Climbing Oakland Center
05:12PM 37.2850 -120.1472 163° South 477 549 39,000  Level Oakland Center
05:13PM 37.1603 -120.0953 162° South 472 543 39,000  Level Oakland Center
05:14PM 37.0342 -120.0428 162° South 467 537 39,000  Level Oakland Center
05:15PM 36.9108 -119.9928 162° South 466 536 39,000  Level Oakland Center
05:16PM 36.7619 -119.9314 162° South 465 535 39,000  Level Oakland Center
05:17PM 36.6386 -119.8806 162° South 463 533 39,000  Level Oakland Center
05:19PM 36.3936 -119.7803 162° South 460 529 39,000  Level Oakland Center
05:20PM 36.2708 -119.7306 162° South 462 532 39,000  Level Oakland Center
05:21PM 36.1475 -119.6814 162° South 463 533 39,000  Level Oakland Center
05:22PM 36.0239 -119.6311 162° South 465 535 39,000  Level Oakland Center
05:24PM 35.8929 -119.6027 182° South  Level FlightAware Approximate
05:24PM 35.7686 -119.6222 182° South 462 532 39,000  Level Oakland Center
05:25PM 35.6375 -119.6022 173° South 472 543 39,000  Level Oakland Center
05:26PM 35.5086 -119.5792 172° South 466 536 39,000  Level Oakland Center
05:27PM 35.3792 -119.5561 172° South 467 537 39,000  Level Oakland Center
05:28PM 35.2519 -119.5242 168° South 466 536 39,000  Level Oakland Center
05:29PM 35.1122 -119.4381 153° Southeast 466 536 39,000  Level Los Angeles Center
05:30PM 34.9950 -119.3681 154° Southeast 466 536 39,000 -300 Level Los Angeles Center
05:31PM 34.8800 -119.2983 154° Southeast 464 534 38,500 -1,500 Descending Los Angeles Center
05:33PM 34.7650 -119.2294 154° Southeast 461 531 36,000 -3,180 Descending Los Angeles Center
05:34PM 34.6272 -119.1469 154° Southeast 461 531 32,000 -3,480 Descending Los Angeles Center
05:35PM 34.5119 -119.0792 154° Southeast 465 535 28,900 -2,880 Descending Los Angeles Center
05:36PM 34.3950 -119.0106 154° Southeast 468 539 26,100 -2,700 Descending Los Angeles Center
05:37PM 34.2794 -118.9392 153° Southeast 469 540 23,400 -2,640 Descending Los Angeles Center
05:38PM 34.1681 -118.8731 154° Southeast 445 512 20,700 -2,760 Descending Los Angeles Center
05:39PM 34.0369 -118.7953 154° Southeast 437 503 17,700 -3,000 Descending Los Angeles Center
05:40PM 33.9264 -118.7306 154° Southeast 428 493 14,600 -1,800 Descending Los Angeles Center
05:41PM 33.8275 -118.6892 161° South 396 456 14,000 -360 Descending Los Angeles Center
05:42PM 33.7350 -118.6547 163° South 349 402 13,900 -1,020 Descending Los Angeles Center
05:43PM 33.6308 -118.6175 163° South 329 379 12,000 -1,680 Descending Los Angeles Center
05:44PM 33.5547 -118.5714 153° Southeast 312 359 10,500 -1,500 Descending Los Angeles Center
05:45PM 33.4861 -118.5131 145° Southeast 309 356 8,900 -1,560 Descending Los Angeles Center
05:46PM 33.4903 -118.4272 87° East 275 316 7,300 -1,680 Descending Los Angeles Center
05:47PM 33.5186 -118.3478 67° East 263 303 5,500 -1,140 Descending Los Angeles Center
05:48PM 33.5536 -118.2508 67° East 266 306 5,000 -240 Descending Los Angeles Center
05:49PM 33.5825 -118.1694 67° East 267 307 5,000  Level Los Angeles Center
05:50PM 33.6089 -118.0975 66° East 250 288 5,000  Level Los Angeles Center
05:51PM 33.6333 -118.0333 65° Northeast 233 268 5,000  Level Southern California TRACON
05:52PM 33.6833 -117.9833 40° Northeast 216 249 5,000  Level Southern California TRACON
05:53PM 33.7167 -117.9500 40° Northeast 215 247 5,000 -540 Level Southern California TRACON
05:54PM 33.7833 -117.9000 32° Northeast 216 249 4,000 -480 Descending Southern California TRACON
05:55PM 33.8167 -117.8500 51° Northeast 215 247 4,000 -540 Level Southern California TRACON
05:56PM 33.8167 -117.8000 90° East 231 266 3,000 -600 Descending Southern California TRACON
05:57PM 33.7667 -117.8167 195° South 165 190 2,900 -720 Descending Southern California TRACON
05:58PM 33.7333 -117.8333 203° Southwest 155 178 1,700 -1,200 Descending Southern California TRACON
05:59PM 33.7000 -117.8500 203° Southwest 132 152 500 -1,140 Descending Southern California TRACON